sensor_id;sensor_type;location;lat;lon;timestamp;temperature;humidity
23188;DHT22;11762;59.878;17.686;2023-04-25T00:02:24;1.70;99.90
23188;DHT22;11762;59.878;17.686;2023-04-25T00:04:51;1.70;99.90
23188;DHT22;11762;59.878;17.686;2023-04-25T00:07:18;1.70;99.90
23188;DHT22;11762;59.878;17.686;2023-04-25T00:09:47;1.70;99.90
23188;DHT22;11762;59.878;17.686;2023-04-25T00:12:14;1.70;99.90
23188;DHT22;11762;59.878;17.686;2023-04-25T00:14:42;1.60;99.90
23188;DHT22;11762;59.878;17.686;2023-04-25T00:17:11;1.70;99.90
23188;DHT22;11762;59.878;17.686;2023-04-25T00:19:38;1.60;99.90
23188;DHT22;11762;59.878;17.686;2023-04-25T00:22:05;1.60;99.90
23188;DHT22;11762;59.878;17.686;2023-04-25T00:24:32;1.70;99.90
23188;DHT22;11762;59.878;17.686;2023-04-25T00:27:01;1.70;99.90
23188;DHT22;11762;59.878;17.686;2023-04-25T00:29:28;1.60;99.90
23188;DHT22;11762;59.878;17.686;2023-04-25T00:31:55;1.70;99.90
23188;DHT22;11762;59.878;17.686;2023-04-25T00:34:22;1.70;99.90
23188;DHT22;11762;59.878;17.686;2023-04-25T00:36:49;1.70;99.90
23188;DHT22;11762;59.878;17.686;2023-04-25T00:39:16;1.60;99.90
23188;DHT22;11762;59.878;17.686;2023-04-25T00:41:44;1.60;99.90
23188;DHT22;11762;59.878;17.686;2023-04-25T00:44:13;1.60;99.90
23188;DHT22;11762;59.878;17.686;2023-04-25T00:46:42;1.60;99.90
23188;DHT22;11762;59.878;17.686;2023-04-25T00:49:10;1.60;99.90
23188;DHT22;11762;59.878;17.686;2023-04-25T00:51:41;1.60;99.90
23188;DHT22;11762;59.878;17.686;2023-04-25T00:54:09;1.60;99.90
23188;DHT22;11762;59.878;17.686;2023-04-25T00:56:37;1.60;99.90
23188;DHT22;11762;59.878;17.686;2023-04-25T00:59:04;1.60;99.90
23188;DHT22;11762;59.878;17.686;2023-04-25T01:01:32;1.60;99.90
23188;DHT22;11762;59.878;17.686;2023-04-25T01:04:01;1.50;99.90
23188;DHT22;11762;59.878;17.686;2023-04-25T01:06:28;1.50;99.90
23188;DHT22;11762;59.878;17.686;2023-04-25T01:08:56;1.50;99.90
23188;DHT22;11762;59.878;17.686;2023-04-25T01:11:23;1.50;99.90
23188;DHT22;11762;59.878;17.686;2023-04-25T01:13:51;1.50;99.90
23188;DHT22;11762;59.878;17.686;2023-04-25T01:16:18;1.50;99.90
23188;DHT22;11762;59.878;17.686;2023-04-25T01:18:47;1.50;99.90
23188;DHT22;11762;59.878;17.686;2023-04-25T01:21:18;1.50;99.90
23188;DHT22;11762;59.878;17.686;2023-04-25T01:23:45;1.50;99.90
23188;DHT22;11762;59.878;17.686;2023-04-25T01:26:12;1.50;99.90
23188;DHT22;11762;59.878;17.686;2023-04-25T01:28:40;1.50;99.90
23188;DHT22;11762;59.878;17.686;2023-04-25T01:31:07;1.40;99.90
23188;DHT22;11762;59.878;17.686;2023-04-25T01:33:34;1.40;99.90
23188;DHT22;11762;59.878;17.686;2023-04-25T01:36:02;1.40;99.90
23188;DHT22;11762;59.878;17.686;2023-04-25T01:38:31;1.40;99.90
23188;DHT22;11762;59.878;17.686;2023-04-25T01:40:58;1.40;99.90
23188;DHT22;11762;59.878;17.686;2023-04-25T01:43:28;1.40;99.90
23188;DHT22;11762;59.878;17.686;2023-04-25T01:45:55;1.40;99.90
23188;DHT22;11762;59.878;17.686;2023-04-25T01:48:23;1.40;99.90
23188;DHT22;11762;59.878;17.686;2023-04-25T01:50:50;1.40;99.90
23188;DHT22;11762;59.878;17.686;2023-04-25T01:53:17;1.30;99.90
23188;DHT22;11762;59.878;17.686;2023-04-25T01:55:45;1.30;99.90
23188;DHT22;11762;59.878;17.686;2023-04-25T01:58:12;1.40;99.90
23188;DHT22;11762;59.878;17.686;2023-04-25T02:00:40;1.40;99.90
23188;DHT22;11762;59.878;17.686;2023-04-25T02:03:07;1.40;99.90
23188;DHT22;11762;59.878;17.686;2023-04-25T02:05:35;1.30;99.90
23188;DHT22;11762;59.878;17.686;2023-04-25T02:08:04;1.30;99.90
23188;DHT22;11762;59.878;17.686;2023-04-25T02:10:31;1.30;99.90
23188;DHT22;11762;59.878;17.686;2023-04-25T02:13:00;1.30;99.90
23188;DHT22;11762;59.878;17.686;2023-04-25T02:15:27;1.30;99.90
23188;DHT22;11762;59.878;17.686;2023-04-25T02:17:54;1.30;99.90
23188;DHT22;11762;59.878;17.686;2023-04-25T02:20:22;1.20;99.90
23188;DHT22;11762;59.878;17.686;2023-04-25T02:22:50;1.30;99.90
23188;DHT22;11762;59.878;17.686;2023-04-25T02:25:17;1.20;99.90
23188;DHT22;11762;59.878;17.686;2023-04-25T02:27:45;1.20;99.90
23188;DHT22;11762;59.878;17.686;2023-04-25T02:30:14;1.20;99.90
23188;DHT22;11762;59.878;17.686;2023-04-25T02:32:41;1.30;99.90
23188;DHT22;11762;59.878;17.686;2023-04-25T02:35:09;1.30;99.90
23188;DHT22;11762;59.878;17.686;2023-04-25T02:37:39;1.30;99.90
23188;DHT22;11762;59.878;17.686;2023-04-25T02:40:07;1.30;99.90
23188;DHT22;11762;59.878;17.686;2023-04-25T02:42:35;1.30;99.90
23188;DHT22;11762;59.878;17.686;2023-04-25T02:45:02;1.30;99.90
23188;DHT22;11762;59.878;17.686;2023-04-25T02:47:31;1.30;99.90
23188;DHT22;11762;59.878;17.686;2023-04-25T02:49:58;1.30;99.90
23188;DHT22;11762;59.878;17.686;2023-04-25T02:52:25;1.30;99.90
23188;DHT22;11762;59.878;17.686;2023-04-25T02:54:52;1.30;99.90
23188;DHT22;11762;59.878;17.686;2023-04-25T02:57:19;1.30;99.90
23188;DHT22;11762;59.878;17.686;2023-04-25T02:59:46;1.30;99.90
23188;DHT22;11762;59.878;17.686;2023-04-25T03:02:13;1.30;99.90
23188;DHT22;11762;59.878;17.686;2023-04-25T03:04:42;1.30;99.90
23188;DHT22;11762;59.878;17.686;2023-04-25T03:07:09;1.40;99.90
23188;DHT22;11762;59.878;17.686;2023-04-25T03:09:37;1.30;99.90
23188;DHT22;11762;59.878;17.686;2023-04-25T03:12:04;1.30;99.90
23188;DHT22;11762;59.878;17.686;2023-04-25T03:14:31;1.30;99.90
23188;DHT22;11762;59.878;17.686;2023-04-25T03:16:58;1.30;99.90
23188;DHT22;11762;59.878;17.686;2023-04-25T03:19:25;1.40;99.90
23188;DHT22;11762;59.878;17.686;2023-04-25T03:21:54;1.40;99.90
23188;DHT22;11762;59.878;17.686;2023-04-25T03:24:21;1.30;99.90
23188;DHT22;11762;59.878;17.686;2023-04-25T03:26:48;1.30;99.90
23188;DHT22;11762;59.878;17.686;2023-04-25T03:29:15;1.30;99.90
23188;DHT22;11762;59.878;17.686;2023-04-25T03:31:42;1.30;99.90
23188;DHT22;11762;59.878;17.686;2023-04-25T03:34:09;1.30;99.90
23188;DHT22;11762;59.878;17.686;2023-04-25T03:36:37;1.30;99.90
23188;DHT22;11762;59.878;17.686;2023-04-25T03:39:05;1.30;99.90
23188;DHT22;11762;59.878;17.686;2023-04-25T03:41:32;1.40;99.90
23188;DHT22;11762;59.878;17.686;2023-04-25T03:43:59;1.40;99.90
23188;DHT22;11762;59.878;17.686;2023-04-25T03:46:26;1.40;99.90
23188;DHT22;11762;59.878;17.686;2023-04-25T03:48:53;1.40;99.90
23188;DHT22;11762;59.878;17.686;2023-04-25T03:51:20;1.40;99.90
23188;DHT22;11762;59.878;17.686;2023-04-25T03:53:48;1.40;99.90
23188;DHT22;11762;59.878;17.686;2023-04-25T03:56:16;1.40;99.90
23188;DHT22;11762;59.878;17.686;2023-04-25T03:58:43;1.40;99.90
23188;DHT22;11762;59.878;17.686;2023-04-25T04:01:10;1.40;99.90
23188;DHT22;11762;59.878;17.686;2023-04-25T04:03:37;1.40;99.90
23188;DHT22;11762;59.878;17.686;2023-04-25T04:06:05;1.40;99.90
23188;DHT22;11762;59.878;17.686;2023-04-25T04:08:33;1.40;99.90
23188;DHT22;11762;59.878;17.686;2023-04-25T04:11:00;1.40;99.90
23188;DHT22;11762;59.878;17.686;2023-04-25T04:13:29;1.40;99.90
23188;DHT22;11762;59.878;17.686;2023-04-25T04:15:56;1.40;99.90
23188;DHT22;11762;59.878;17.686;2023-04-25T04:18:23;1.40;99.90
23188;DHT22;11762;59.878;17.686;2023-04-25T04:20:51;1.40;99.90
23188;DHT22;11762;59.878;17.686;2023-04-25T04:23:18;1.40;99.90
23188;DHT22;11762;59.878;17.686;2023-04-25T04:25:46;1.40;99.90
23188;DHT22;11762;59.878;17.686;2023-04-25T04:28:13;1.40;99.90
23188;DHT22;11762;59.878;17.686;2023-04-25T04:30:43;1.40;99.90
23188;DHT22;11762;59.878;17.686;2023-04-25T04:33:11;1.40;99.90
23188;DHT22;11762;59.878;17.686;2023-04-25T04:35:39;1.40;99.90
23188;DHT22;11762;59.878;17.686;2023-04-25T04:38:07;1.40;99.90
23188;DHT22;11762;59.878;17.686;2023-04-25T04:40:35;1.40;99.90
23188;DHT22;11762;59.878;17.686;2023-04-25T04:43:02;1.40;99.90
23188;DHT22;11762;59.878;17.686;2023-04-25T04:45:29;1.40;99.90
23188;DHT22;11762;59.878;17.686;2023-04-25T04:47:57;1.40;99.90
23188;DHT22;11762;59.878;17.686;2023-04-25T04:50:24;1.40;99.90
23188;DHT22;11762;59.878;17.686;2023-04-25T04:52:52;1.40;99.90
23188;DHT22;11762;59.878;17.686;2023-04-25T04:55:20;1.50;99.90
23188;DHT22;11762;59.878;17.686;2023-04-25T04:57:47;1.50;99.90
23188;DHT22;11762;59.878;17.686;2023-04-25T05:00:15;1.50;99.90
23188;DHT22;11762;59.878;17.686;2023-04-25T05:02:42;1.50;99.90
23188;DHT22;11762;59.878;17.686;2023-04-25T05:05:11;1.50;99.90
23188;DHT22;11762;59.878;17.686;2023-04-25T05:07:38;1.50;99.90
23188;DHT22;11762;59.878;17.686;2023-04-25T05:10:06;1.60;99.90
23188;DHT22;11762;59.878;17.686;2023-04-25T05:12:33;1.60;99.90
23188;DHT22;11762;59.878;17.686;2023-04-25T05:15:00;1.60;99.90
23188;DHT22;11762;59.878;17.686;2023-04-25T05:17:27;1.70;99.90
23188;DHT22;11762;59.878;17.686;2023-04-25T05:19:54;1.60;99.90
23188;DHT22;11762;59.878;17.686;2023-04-25T05:22:23;1.60;99.90
23188;DHT22;11762;59.878;17.686;2023-04-25T05:24:50;1.70;99.90
23188;DHT22;11762;59.878;17.686;2023-04-25T05:27:17;1.70;99.90
23188;DHT22;11762;59.878;17.686;2023-04-25T05:29:45;1.60;99.90
23188;DHT22;11762;59.878;17.686;2023-04-25T05:32:12;1.70;99.90
23188;DHT22;11762;59.878;17.686;2023-04-25T05:34:39;1.70;99.90
23188;DHT22;11762;59.878;17.686;2023-04-25T05:37:07;1.70;99.90
23188;DHT22;11762;59.878;17.686;2023-04-25T05:39:35;1.70;99.90
23188;DHT22;11762;59.878;17.686;2023-04-25T05:42:02;1.80;99.90
23188;DHT22;11762;59.878;17.686;2023-04-25T05:44:30;1.80;99.90
23188;DHT22;11762;59.878;17.686;2023-04-25T05:46:57;1.80;99.90
23188;DHT22;11762;59.878;17.686;2023-04-25T05:49:24;1.90;99.90
23188;DHT22;11762;59.878;17.686;2023-04-25T05:51:51;1.80;99.90
23188;DHT22;11762;59.878;17.686;2023-04-25T05:54:18;1.80;99.90
23188;DHT22;11762;59.878;17.686;2023-04-25T05:56:47;1.90;99.90
23188;DHT22;11762;59.878;17.686;2023-04-25T05:59:14;1.90;99.90
23188;DHT22;11762;59.878;17.686;2023-04-25T06:01:41;1.90;99.90
23188;DHT22;11762;59.878;17.686;2023-04-25T06:04:08;1.80;99.90
23188;DHT22;11762;59.878;17.686;2023-04-25T06:06:36;1.90;99.90
23188;DHT22;11762;59.878;17.686;2023-04-25T06:09:03;1.90;99.90
23188;DHT22;11762;59.878;17.686;2023-04-25T06:11:30;2.00;99.90
23188;DHT22;11762;59.878;17.686;2023-04-25T06:13:58;1.90;99.90
23188;DHT22;11762;59.878;17.686;2023-04-25T06:16:25;2.10;99.90
23188;DHT22;11762;59.878;17.686;2023-04-25T06:18:52;2.10;99.90
23188;DHT22;11762;59.878;17.686;2023-04-25T06:21:19;2.10;99.90
23188;DHT22;11762;59.878;17.686;2023-04-25T06:23:47;2.10;99.90
23188;DHT22;11762;59.878;17.686;2023-04-25T06:26:14;2.10;99.90
23188;DHT22;11762;59.878;17.686;2023-04-25T06:28:41;2.10;99.90
23188;DHT22;11762;59.878;17.686;2023-04-25T06:31:09;2.10;99.90
23188;DHT22;11762;59.878;17.686;2023-04-25T06:33:37;2.20;99.90
23188;DHT22;11762;59.878;17.686;2023-04-25T06:36:04;2.20;99.90
23188;DHT22;11762;59.878;17.686;2023-04-25T06:38:31;2.20;99.90
23188;DHT22;11762;59.878;17.686;2023-04-25T06:41:00;2.20;99.90
23188;DHT22;11762;59.878;17.686;2023-04-25T06:43:27;2.30;99.90
23188;DHT22;11762;59.878;17.686;2023-04-25T06:45:58;2.30;99.90
23188;DHT22;11762;59.878;17.686;2023-04-25T06:48:26;2.40;99.90
23188;DHT22;11762;59.878;17.686;2023-04-25T06:50:54;2.40;99.90
23188;DHT22;11762;59.878;17.686;2023-04-25T06:53:22;2.40;99.90
23188;DHT22;11762;59.878;17.686;2023-04-25T06:55:49;2.30;99.90
23188;DHT22;11762;59.878;17.686;2023-04-25T06:58:16;2.30;99.90
23188;DHT22;11762;59.878;17.686;2023-04-25T07:00:43;2.40;99.90
23188;DHT22;11762;59.878;17.686;2023-04-25T07:03:10;2.40;99.90
23188;DHT22;11762;59.878;17.686;2023-04-25T07:05:38;2.40;99.90
23188;DHT22;11762;59.878;17.686;2023-04-25T07:08:05;2.40;99.90
23188;DHT22;11762;59.878;17.686;2023-04-25T07:10:33;2.40;99.90
23188;DHT22;11762;59.878;17.686;2023-04-25T07:13:00;2.40;99.90
23188;DHT22;11762;59.878;17.686;2023-04-25T07:15:27;2.40;99.90
23188;DHT22;11762;59.878;17.686;2023-04-25T07:17:54;2.50;99.90
23188;DHT22;11762;59.878;17.686;2023-04-25T07:20:21;2.50;99.90
23188;DHT22;11762;59.878;17.686;2023-04-25T07:22:50;2.40;99.90
23188;DHT22;11762;59.878;17.686;2023-04-25T07:25:17;2.50;99.90
23188;DHT22;11762;59.878;17.686;2023-04-25T07:27:44;2.40;99.90
23188;DHT22;11762;59.878;17.686;2023-04-25T07:30:11;2.50;99.90
23188;DHT22;11762;59.878;17.686;2023-04-25T07:32:39;2.50;99.90
23188;DHT22;11762;59.878;17.686;2023-04-25T07:35:07;2.60;99.90
23188;DHT22;11762;59.878;17.686;2023-04-25T07:37:34;2.60;99.90
23188;DHT22;11762;59.878;17.686;2023-04-25T07:40:03;2.60;99.90
23188;DHT22;11762;59.878;17.686;2023-04-25T07:42:31;2.60;99.90
23188;DHT22;11762;59.878;17.686;2023-04-25T07:44:58;2.60;99.90
23188;DHT22;11762;59.878;17.686;2023-04-25T07:47:24;2.70;99.90
23188;DHT22;11762;59.878;17.686;2023-04-25T07:49:52;2.80;99.90
23188;DHT22;11762;59.878;17.686;2023-04-25T07:52:19;2.90;99.90
23188;DHT22;11762;59.878;17.686;2023-04-25T07:54:47;2.90;99.90
23188;DHT22;11762;59.878;17.686;2023-04-25T07:57:15;2.90;99.90
23188;DHT22;11762;59.878;17.686;2023-04-25T07:59:44;2.90;99.90
23188;DHT22;11762;59.878;17.686;2023-04-25T08:02:11;3.00;99.90
23188;DHT22;11762;59.878;17.686;2023-04-25T08:04:38;3.10;99.90
23188;DHT22;11762;59.878;17.686;2023-04-25T08:07:05;3.10;99.90
23188;DHT22;11762;59.878;17.686;2023-04-25T08:09:31;3.20;99.90
23188;DHT22;11762;59.878;17.686;2023-04-25T08:12:02;3.20;99.90
23188;DHT22;11762;59.878;17.686;2023-04-25T08:14:31;3.20;99.90
23188;DHT22;11762;59.878;17.686;2023-04-25T08:17:01;3.20;99.90
23188;DHT22;11762;59.878;17.686;2023-04-25T08:19:29;3.10;99.90
23188;DHT22;11762;59.878;17.686;2023-04-25T08:21:56;3.20;99.90
23188;DHT22;11762;59.878;17.686;2023-04-25T08:24:23;3.30;99.90
23188;DHT22;11762;59.878;17.686;2023-04-25T08:26:51;3.30;99.90
23188;DHT22;11762;59.878;17.686;2023-04-25T08:29:18;3.30;99.90
23188;DHT22;11762;59.878;17.686;2023-04-25T08:31:46;3.30;99.90
23188;DHT22;11762;59.878;17.686;2023-04-25T08:34:14;3.30;99.90
23188;DHT22;11762;59.878;17.686;2023-04-25T08:36:41;3.20;99.90
23188;DHT22;11762;59.878;17.686;2023-04-25T08:39:08;3.30;99.90
23188;DHT22;11762;59.878;17.686;2023-04-25T08:41:36;3.30;99.90
23188;DHT22;11762;59.878;17.686;2023-04-25T08:44:03;3.30;99.90
23188;DHT22;11762;59.878;17.686;2023-04-25T08:46:32;3.40;99.90
23188;DHT22;11762;59.878;17.686;2023-04-25T08:49:01;3.50;99.90
23188;DHT22;11762;59.878;17.686;2023-04-25T08:51:31;3.50;99.90
23188;DHT22;11762;59.878;17.686;2023-04-25T08:54:06;3.60;99.90
23188;DHT22;11762;59.878;17.686;2023-04-25T08:56:35;3.70;99.90
23188;DHT22;11762;59.878;17.686;2023-04-25T08:59:02;3.70;99.90
23188;DHT22;11762;59.878;17.686;2023-04-25T09:01:29;3.80;99.90
23188;DHT22;11762;59.878;17.686;2023-04-25T09:03:57;3.80;99.90
23188;DHT22;11762;59.878;17.686;2023-04-25T09:06:25;4.00;99.90
23188;DHT22;11762;59.878;17.686;2023-04-25T09:08:53;4.00;99.90
23188;DHT22;11762;59.878;17.686;2023-04-25T09:11:20;4.00;99.90
23188;DHT22;11762;59.878;17.686;2023-04-25T09:13:47;3.90;99.90
23188;DHT22;11762;59.878;17.686;2023-04-25T09:16:14;4.10;99.90
23188;DHT22;11762;59.878;17.686;2023-04-25T09:18:44;4.30;99.90
23188;DHT22;11762;59.878;17.686;2023-04-25T09:21:13;4.20;99.90
23188;DHT22;11762;59.878;17.686;2023-04-25T09:23:44;4.30;99.90
23188;DHT22;11762;59.878;17.686;2023-04-25T09:26:14;4.40;99.90
23188;DHT22;11762;59.878;17.686;2023-04-25T09:28:42;4.50;99.90
23188;DHT22;11762;59.878;17.686;2023-04-25T09:31:10;4.60;99.90
23188;DHT22;11762;59.878;17.686;2023-04-25T09:33:37;4.60;99.90
23188;DHT22;11762;59.878;17.686;2023-04-25T09:36:06;4.50;99.90
23188;DHT22;11762;59.878;17.686;2023-04-25T09:38:41;4.50;99.90
23188;DHT22;11762;59.878;17.686;2023-04-25T09:41:10;4.50;99.90
23188;DHT22;11762;59.878;17.686;2023-04-25T09:43:38;4.90;99.90
23188;DHT22;11762;59.878;17.686;2023-04-25T09:46:08;4.90;99.90
23188;DHT22;11762;59.878;17.686;2023-04-25T09:48:36;5.10;99.90
23188;DHT22;11762;59.878;17.686;2023-04-25T09:51:05;5.00;99.90
23188;DHT22;11762;59.878;17.686;2023-04-25T09:53:32;5.00;99.90
23188;DHT22;11762;59.878;17.686;2023-04-25T09:56:03;5.10;99.90
23188;DHT22;11762;59.878;17.686;2023-04-25T09:58:32;5.00;99.90
23188;DHT22;11762;59.878;17.686;2023-04-25T10:01:01;5.20;99.90
23188;DHT22;11762;59.878;17.686;2023-04-25T10:03:30;5.40;99.90
23188;DHT22;11762;59.878;17.686;2023-04-25T10:05:59;5.50;99.90
23188;DHT22;11762;59.878;17.686;2023-04-25T10:08:31;5.60;99.90
23188;DHT22;11762;59.878;17.686;2023-04-25T10:11:02;5.70;99.90
23188;DHT22;11762;59.878;17.686;2023-04-25T10:13:30;5.50;99.90
23188;DHT22;11762;59.878;17.686;2023-04-25T10:15:59;5.40;99.90
23188;DHT22;11762;59.878;17.686;2023-04-25T10:18:26;5.50;99.90
23188;DHT22;11762;59.878;17.686;2023-04-25T10:20:54;5.70;99.90
23188;DHT22;11762;59.878;17.686;2023-04-25T10:23:22;5.70;99.90
23188;DHT22;11762;59.878;17.686;2023-04-25T10:25:50;5.70;99.90
23188;DHT22;11762;59.878;17.686;2023-04-25T10:28:20;5.90;99.90
23188;DHT22;11762;59.878;17.686;2023-04-25T10:31:02;6.10;99.90
23188;DHT22;11762;59.878;17.686;2023-04-25T10:33:32;6.20;99.90
23188;DHT22;11762;59.878;17.686;2023-04-25T10:36:09;6.10;99.90
23188;DHT22;11762;59.878;17.686;2023-04-25T10:38:36;6.30;99.90
23188;DHT22;11762;59.878;17.686;2023-04-25T10:41:04;6.50;99.90
23188;DHT22;11762;59.878;17.686;2023-04-25T10:43:36;6.50;99.90
23188;DHT22;11762;59.878;17.686;2023-04-25T10:46:13;6.50;99.90
23188;DHT22;11762;59.878;17.686;2023-04-25T10:48:46;6.60;99.90
23188;DHT22;11762;59.878;17.686;2023-04-25T10:51:17;6.60;99.90
23188;DHT22;11762;59.878;17.686;2023-04-25T10:53:45;6.70;99.90
23188;DHT22;11762;59.878;17.686;2023-04-25T10:56:16;6.70;99.90
23188;DHT22;11762;59.878;17.686;2023-04-25T10:58:45;6.90;99.90
23188;DHT22;11762;59.878;17.686;2023-04-25T11:01:13;6.90;99.90
23188;DHT22;11762;59.878;17.686;2023-04-25T11:03:41;6.90;99.90
23188;DHT22;11762;59.878;17.686;2023-04-25T11:06:19;7.10;99.90
23188;DHT22;11762;59.878;17.686;2023-04-25T11:08:48;7.10;99.90
23188;DHT22;11762;59.878;17.686;2023-04-25T11:11:16;7.10;99.90
23188;DHT22;11762;59.878;17.686;2023-04-25T11:13:47;7.00;99.90
23188;DHT22;11762;59.878;17.686;2023-04-25T11:16:15;7.10;99.90
23188;DHT22;11762;59.878;17.686;2023-04-25T11:18:42;6.90;99.90
23188;DHT22;11762;59.878;17.686;2023-04-25T11:21:10;6.80;99.90
23188;DHT22;11762;59.878;17.686;2023-04-25T11:23:37;7.10;99.90
23188;DHT22;11762;59.878;17.686;2023-04-25T11:26:04;7.30;99.90
23188;DHT22;11762;59.878;17.686;2023-04-25T11:28:31;7.50;99.90
23188;DHT22;11762;59.878;17.686;2023-04-25T11:31:00;7.70;99.90
23188;DHT22;11762;59.878;17.686;2023-04-25T11:33:27;7.80;99.90
23188;DHT22;11762;59.878;17.686;2023-04-25T11:35:54;7.90;99.90
23188;DHT22;11762;59.878;17.686;2023-04-25T11:38:22;8.00;99.90
23188;DHT22;11762;59.878;17.686;2023-04-25T11:40:51;7.90;99.90
23188;DHT22;11762;59.878;17.686;2023-04-25T11:43:20;8.00;99.90
23188;DHT22;11762;59.878;17.686;2023-04-25T11:45:48;8.10;99.90
23188;DHT22;11762;59.878;17.686;2023-04-25T11:48:17;7.80;99.90
23188;DHT22;11762;59.878;17.686;2023-04-25T11:50:45;7.40;99.90
23188;DHT22;11762;59.878;17.686;2023-04-25T11:53:12;7.50;99.90
23188;DHT22;11762;59.878;17.686;2023-04-25T11:55:39;7.70;99.90
23188;DHT22;11762;59.878;17.686;2023-04-25T11:58:06;7.80;99.90
23188;DHT22;11762;59.878;17.686;2023-04-25T12:00:34;7.70;99.90
23188;DHT22;11762;59.878;17.686;2023-04-25T12:03:01;8.00;99.90
23188;DHT22;11762;59.878;17.686;2023-04-25T12:05:31;8.00;99.90
23188;DHT22;11762;59.878;17.686;2023-04-25T12:08:10;8.00;99.90
23188;DHT22;11762;59.878;17.686;2023-04-25T12:10:38;8.00;99.90
23188;DHT22;11762;59.878;17.686;2023-04-25T12:13:19;8.10;99.90
23188;DHT22;11762;59.878;17.686;2023-04-25T12:15:47;8.00;99.90
23188;DHT22;11762;59.878;17.686;2023-04-25T12:18:14;8.20;99.90
23188;DHT22;11762;59.878;17.686;2023-04-25T12:20:43;8.30;99.90
23188;DHT22;11762;59.878;17.686;2023-04-25T12:23:10;8.50;99.90
23188;DHT22;11762;59.878;17.686;2023-04-25T12:25:39;8.40;99.90
23188;DHT22;11762;59.878;17.686;2023-04-25T12:28:17;8.30;99.90
23188;DHT22;11762;59.878;17.686;2023-04-25T12:30:53;8.40;99.90
23188;DHT22;11762;59.878;17.686;2023-04-25T12:33:20;8.20;99.90
23188;DHT22;11762;59.878;17.686;2023-04-25T12:35:49;7.80;99.90
23188;DHT22;11762;59.878;17.686;2023-04-25T12:38:21;7.70;99.90
23188;DHT22;11762;59.878;17.686;2023-04-25T12:40:48;7.80;99.90
23188;DHT22;11762;59.878;17.686;2023-04-25T12:43:15;7.90;99.90
23188;DHT22;11762;59.878;17.686;2023-04-25T12:45:42;8.00;99.90
23188;DHT22;11762;59.878;17.686;2023-04-25T12:48:10;8.00;99.90
23188;DHT22;11762;59.878;17.686;2023-04-25T12:50:37;8.10;99.90
23188;DHT22;11762;59.878;17.686;2023-04-25T12:53:05;8.10;99.90
23188;DHT22;11762;59.878;17.686;2023-04-25T12:55:32;7.90;99.90
23188;DHT22;11762;59.878;17.686;2023-04-25T12:57:59;7.70;99.90
23188;DHT22;11762;59.878;17.686;2023-04-25T13:00:26;7.70;99.90
23188;DHT22;11762;59.878;17.686;2023-04-25T13:02:53;8.00;99.90
23188;DHT22;11762;59.878;17.686;2023-04-25T13:05:20;7.90;99.90
23188;DHT22;11762;59.878;17.686;2023-04-25T13:07:47;7.70;99.90
23188;DHT22;11762;59.878;17.686;2023-04-25T13:10:16;7.60;99.90
23188;DHT22;11762;59.878;17.686;2023-04-25T13:12:43;7.50;99.90
23188;DHT22;11762;59.878;17.686;2023-04-25T13:15:11;7.50;99.90
23188;DHT22;11762;59.878;17.686;2023-04-25T13:17:38;7.60;99.90
23188;DHT22;11762;59.878;17.686;2023-04-25T13:20:06;7.80;99.90
23188;DHT22;11762;59.878;17.686;2023-04-25T13:22:35;8.00;99.90
23188;DHT22;11762;59.878;17.686;2023-04-25T13:25:04;7.90;99.90
23188;DHT22;11762;59.878;17.686;2023-04-25T13:27:33;8.00;99.90
23188;DHT22;11762;59.878;17.686;2023-04-25T13:30:01;7.90;99.90
23188;DHT22;11762;59.878;17.686;2023-04-25T13:32:32;7.90;99.90
23188;DHT22;11762;59.878;17.686;2023-04-25T13:35:01;7.80;99.90
23188;DHT22;11762;59.878;17.686;2023-04-25T13:37:29;7.90;99.90
23188;DHT22;11762;59.878;17.686;2023-04-25T13:39:59;7.90;99.90
23188;DHT22;11762;59.878;17.686;2023-04-25T13:42:26;8.00;99.90
23188;DHT22;11762;59.878;17.686;2023-04-25T13:44:54;8.10;99.90
23188;DHT22;11762;59.878;17.686;2023-04-25T13:47:22;8.20;99.90
23188;DHT22;11762;59.878;17.686;2023-04-25T13:49:49;8.20;99.90
23188;DHT22;11762;59.878;17.686;2023-04-25T13:52:16;8.10;99.90
23188;DHT22;11762;59.878;17.686;2023-04-25T13:54:44;8.20;99.90
23188;DHT22;11762;59.878;17.686;2023-04-25T13:57:11;8.40;99.90
23188;DHT22;11762;59.878;17.686;2023-04-25T13:59:38;8.40;99.90
23188;DHT22;11762;59.878;17.686;2023-04-25T14:02:07;8.20;99.90
23188;DHT22;11762;59.878;17.686;2023-04-25T14:04:34;8.10;99.90
23188;DHT22;11762;59.878;17.686;2023-04-25T14:07:02;8.20;99.90
23188;DHT22;11762;59.878;17.686;2023-04-25T14:09:30;8.40;99.90
23188;DHT22;11762;59.878;17.686;2023-04-25T14:11:57;8.40;99.90
23188;DHT22;11762;59.878;17.686;2023-04-25T14:14:25;8.40;99.90
23188;DHT22;11762;59.878;17.686;2023-04-25T14:16:52;8.40;99.90
23188;DHT22;11762;59.878;17.686;2023-04-25T14:19:21;8.30;99.90
23188;DHT22;11762;59.878;17.686;2023-04-25T14:21:48;8.20;99.90
23188;DHT22;11762;59.878;17.686;2023-04-25T14:24:16;8.10;99.90
23188;DHT22;11762;59.878;17.686;2023-04-25T14:26:44;8.10;99.90
23188;DHT22;11762;59.878;17.686;2023-04-25T14:29:11;8.00;99.90
23188;DHT22;11762;59.878;17.686;2023-04-25T14:31:39;8.20;99.90
23188;DHT22;11762;59.878;17.686;2023-04-25T14:34:06;8.10;99.90
23188;DHT22;11762;59.878;17.686;2023-04-25T14:36:35;8.10;99.90
23188;DHT22;11762;59.878;17.686;2023-04-25T14:39:02;8.20;99.90
23188;DHT22;11762;59.878;17.686;2023-04-25T14:41:30;8.30;99.90
23188;DHT22;11762;59.878;17.686;2023-04-25T14:43:57;8.20;99.90
23188;DHT22;11762;59.878;17.686;2023-04-25T14:46:24;8.20;99.90
23188;DHT22;11762;59.878;17.686;2023-04-25T14:48:52;8.10;99.90
23188;DHT22;11762;59.878;17.686;2023-04-25T14:51:21;8.10;99.90
23188;DHT22;11762;59.878;17.686;2023-04-25T14:53:49;8.10;99.90
23188;DHT22;11762;59.878;17.686;2023-04-25T14:56:17;8.00;99.90
23188;DHT22;11762;59.878;17.686;2023-04-25T14:58:44;7.80;99.90
23188;DHT22;11762;59.878;17.686;2023-04-25T15:01:12;7.80;99.90
23188;DHT22;11762;59.878;17.686;2023-04-25T15:03:40;7.70;99.90
23188;DHT22;11762;59.878;17.686;2023-04-25T15:06:07;7.50;99.90
23188;DHT22;11762;59.878;17.686;2023-04-25T15:08:35;7.50;99.90
23188;DHT22;11762;59.878;17.686;2023-04-25T15:11:04;7.40;99.90
23188;DHT22;11762;59.878;17.686;2023-04-25T15:13:31;7.30;99.90
23188;DHT22;11762;59.878;17.686;2023-04-25T15:15:58;7.30;99.90
23188;DHT22;11762;59.878;17.686;2023-04-25T15:18:25;7.40;99.90
23188;DHT22;11762;59.878;17.686;2023-04-25T15:20:52;7.40;99.90
23188;DHT22;11762;59.878;17.686;2023-04-25T15:23:21;7.40;99.90
23188;DHT22;11762;59.878;17.686;2023-04-25T15:25:50;7.40;99.90
23188;DHT22;11762;59.878;17.686;2023-04-25T15:28:19;7.40;99.90
23188;DHT22;11762;59.878;17.686;2023-04-25T15:30:47;7.40;99.90
23188;DHT22;11762;59.878;17.686;2023-04-25T15:33:14;7.40;99.90
23188;DHT22;11762;59.878;17.686;2023-04-25T15:35:41;7.50;99.90